createdAt,value
2022-12-26T00:01:59.299Z,35.72
2022-12-26T00:04:48.650Z,36.45
2022-12-26T00:07:17.887Z,35.40
2022-12-26T00:09:46.360Z,35.85
2022-12-26T00:12:15.903Z,33.80
2022-12-26T00:14:56.289Z,32.42
2022-12-26T00:17:23.257Z,34.50
2022-12-26T00:19:50.300Z,33.70
2022-12-26T00:22:17.160Z,35.33
2022-12-26T00:24:44.148Z,33.50
2022-12-26T00:27:34.525Z,33.03
2022-12-26T00:30:08.831Z,33.80
2022-12-26T00:32:38.805Z,29.85
2022-12-26T00:35:08.504Z,31.13
2022-12-26T00:37:40.502Z,32.17
2022-12-26T00:40:14.457Z,31.38
2022-12-26T00:42:55.326Z,31.80
2022-12-26T00:45:22.246Z,30.63
2022-12-26T00:47:49.108Z,30.15
2022-12-26T00:50:16.263Z,31.65
2022-12-26T00:52:43.258Z,31.17
2022-12-26T00:55:10.275Z,29.90
2022-12-26T00:57:37.128Z,31.02
2022-12-26T01:00:06.976Z,29.25
2022-12-26T01:02:33.891Z,29.98
2022-12-26T01:05:02.717Z,28.90
2022-12-26T01:07:32.610Z,30.42
2022-12-26T01:09:59.501Z,30.13
2022-12-26T01:12:26.416Z,31.65
2022-12-26T01:14:55.744Z,30.95
2022-12-26T01:17:24.959Z,30.95
2022-12-26T01:19:52.746Z,29.52
2022-12-26T01:22:20.389Z,29.33
2022-12-26T01:24:47.109Z,29.05
2022-12-26T01:27:13.964Z,30.48
2022-12-26T01:29:40.934Z,31.67
2022-12-26T01:32:08.058Z,28.67
2022-12-26T01:34:39.229Z,29.05
2022-12-26T01:37:08.539Z,28.48
2022-12-26T01:39:35.595Z,28.42
2022-12-26T01:42:10.638Z,28.40
2022-12-26T01:45:17.793Z,27.77
2022-12-26T01:47:49.711Z,26.45
2022-12-26T01:50:29.274Z,27.20
2022-12-26T01:53:01.198Z,26.27
2022-12-26T01:55:30.355Z,25.02
2022-12-26T01:58:03.613Z,24.98
2022-12-26T02:00:31.771Z,24.20
2022-12-26T02:03:03.525Z,22.00
2022-12-26T02:05:34.496Z,20.65
2022-12-26T02:08:04.634Z,19.42
2022-12-26T02:10:42.522Z,20.20
2022-12-26T02:13:13.984Z,20.73
2022-12-26T02:18:10.001Z,19.42
2022-12-26T02:20:45.045Z,19.52
2022-12-26T02:23:47.647Z,19.67
2022-12-26T02:26:49.919Z,20.08
2022-12-26T02:30:00.799Z,22.45
2022-12-26T02:32:40.297Z,23.33
2022-12-26T02:35:15.741Z,24.13
2022-12-26T02:37:54.713Z,27.67
2022-12-26T02:40:41.601Z,29.73
2022-12-26T02:43:17.159Z,32.28
2022-12-26T02:45:52.777Z,36.08
2022-12-26T02:48:32.356Z,36.88
2022-12-26T02:51:11.599Z,36.67
2022-12-26T02:53:46.596Z,37.75
2022-12-26T02:56:19.592Z,41.78
2022-12-26T02:58:57.840Z,40.10
2022-12-26T03:01:30.922Z,39.58
2022-12-26T03:04:04.479Z,41.63
2022-12-26T03:06:34.414Z,40.53
2022-12-26T03:09:04.691Z,41.33
2022-12-26T03:11:37.593Z,39.97
2022-12-26T03:14:13.981Z,39.35
2022-12-26T03:16:43.857Z,39.42
2022-12-26T03:19:15.581Z,39.20
2022-12-26T03:21:45.064Z,38.15
2022-12-26T03:24:14.296Z,38.60
2022-12-26T03:26:46.636Z,38.08
2022-12-26T03:29:18.979Z,37.60
2022-12-26T03:31:46.579Z,36.67
2022-12-26T03:34:14.815Z,35.42
2022-12-26T03:36:55.778Z,37.08
2022-12-26T03:39:32.213Z,36.20
2022-12-26T03:42:06.335Z,36.50
2022-12-26T03:44:41.135Z,35.50
2022-12-26T03:47:17.379Z,35.33
2022-12-26T03:49:52.003Z,34.15
2022-12-26T03:52:24.445Z,35.70
2022-12-26T03:54:57.112Z,34.03
2022-12-26T03:57:31.776Z,34.67
2022-12-26T04:00:03.039Z,34.20
2022-12-26T04:02:32.496Z,34.67
2022-12-26T04:05:04.293Z,33.95
2022-12-26T04:07:34.870Z,33.63
2022-12-26T04:10:07.870Z,31.80
2022-12-26T04:12:37.437Z,30.70
2022-12-26T04:15:11.998Z,31.70
2022-12-26T04:17:45.872Z,32.97
2022-12-26T04:20:19.955Z,31.40
2022-12-26T04:22:51.276Z,32.05
2022-12-26T04:25:49.008Z,30.88
2022-12-26T04:28:15.700Z,31.80
2022-12-26T04:30:47.785Z,32.22
2022-12-26T04:33:19.621Z,32.95
2022-12-26T04:35:52.331Z,33.70
2022-12-26T04:38:24.512Z,32.92
2022-12-26T04:40:59.524Z,34.22
2022-12-26T04:43:48.607Z,35.97
2022-12-26T04:46:17.638Z,34.78
2022-12-26T04:48:47.405Z,35.17
2022-12-26T04:51:16.033Z,34.67
2022-12-26T04:53:42.814Z,34.10
2022-12-26T04:56:11.036Z,34.00
2022-12-26T04:58:37.846Z,32.63
2022-12-26T05:01:04.648Z,33.70
2022-12-26T05:03:31.498Z,32.08
2022-12-26T05:05:58.697Z,32.58
2022-12-26T05:08:33.304Z,31.85
2022-12-26T05:11:00.124Z,31.60
2022-12-26T05:13:26.979Z,31.50
2022-12-26T05:15:53.815Z,33.08
2022-12-26T05:18:20.617Z,33.88
2022-12-26T05:20:47.701Z,33.25
2022-12-26T05:23:22.003Z,30.85
2022-12-26T05:25:51.994Z,31.25
2022-12-26T05:28:19.527Z,31.17
2022-12-26T05:30:49.516Z,32.85
2022-12-26T05:33:18.332Z,31.52
2022-12-26T05:35:46.368Z,31.17
2022-12-26T05:38:15.505Z,31.25
2022-12-26T05:40:42.365Z,32.33
2022-12-26T05:43:14.045Z,30.13
2022-12-26T05:48:13.539Z,29.40
2022-12-26T05:50:42.269Z,29.25
2022-12-26T05:53:09.394Z,29.58
2022-12-26T05:55:36.294Z,30.92
2022-12-26T05:58:05.303Z,29.02
2022-12-26T06:00:33.821Z,30.95
2022-12-26T06:03:02.939Z,28.27
2022-12-26T06:05:29.999Z,27.15
2022-12-26T06:07:56.822Z,28.08
2022-12-26T06:10:23.528Z,28.33
2022-12-26T06:12:50.530Z,26.98
2022-12-26T06:15:17.334Z,26.20
2022-12-26T06:17:45.691Z,25.08
2022-12-26T06:20:12.518Z,26.45
2022-12-26T06:22:42.596Z,25.20
2022-12-26T06:25:13.464Z,25.42
2022-12-26T06:27:43.349Z,24.73
2022-12-26T06:30:11.013Z,24.88
2022-12-26T06:32:37.916Z,24.42
2022-12-26T06:35:09.716Z,24.92
2022-12-26T06:37:36.544Z,24.17
2022-12-26T06:40:03.878Z,24.67
2022-12-26T06:42:30.881Z,25.30
2022-12-26T06:44:58.214Z,22.77
2022-12-26T06:47:27.450Z,22.75
2022-12-26T06:49:56.148Z,20.70
2022-12-26T06:52:24.377Z,21.05
2022-12-26T06:54:51.247Z,19.40
2022-12-26T06:57:18.290Z,18.30
2022-12-26T06:59:45.045Z,18.65
2022-12-26T07:02:11.924Z,18.13
2022-12-26T07:04:38.923Z,16.52
2022-12-26T07:07:09.271Z,16.60
2022-12-26T07:09:38.195Z,15.50
2022-12-26T07:12:06.118Z,14.43
2022-12-26T07:14:33.290Z,14.40
2022-12-26T07:17:00.397Z,13.48
2022-12-26T07:19:29.330Z,13.00
2022-12-26T07:21:56.751Z,11.75
2022-12-26T07:24:23.519Z,12.57
2022-12-26T07:26:51.634Z,11.55
2022-12-26T07:29:18.750Z,10.80
2022-12-26T07:31:46.035Z,11.30
2022-12-26T07:34:14.446Z,11.60
2022-12-26T07:36:42.080Z,11.30
2022-12-26T07:39:09.237Z,11.23
2022-12-26T07:41:36.514Z,11.00
2022-12-26T07:44:05.011Z,11.88
2022-12-26T07:46:32.048Z,11.00
2022-12-26T07:48:59.155Z,11.02
2022-12-26T07:51:26.640Z,11.18
2022-12-26T07:53:53.398Z,10.98
2022-12-26T07:56:20.380Z,10.73
2022-12-26T07:58:49.130Z,9.35
2022-12-26T08:01:17.751Z,10.57
2022-12-26T08:03:46.339Z,9.32
2022-12-26T08:06:17.394Z,9.07
2022-12-26T08:08:50.484Z,9.60
2022-12-26T08:11:23.647Z,9.48
2022-12-26T08:13:50.907Z,7.90
2022-12-26T08:16:23.997Z,8.25
2022-12-26T08:18:52.954Z,8.45
2022-12-26T08:21:19.919Z,7.97
2022-12-26T08:23:46.957Z,7.32
2022-12-26T08:26:17.600Z,7.53
2022-12-26T08:28:44.409Z,7.68
2022-12-26T08:31:18.157Z,8.05
2022-12-26T08:33:50.573Z,8.45
2022-12-26T08:36:18.852Z,9.20
2022-12-26T08:38:46.627Z,8.77
2022-12-26T08:41:13.750Z,9.93
2022-12-26T08:46:27.391Z,8.80
2022-12-26T08:48:55.684Z,8.90
2022-12-26T08:51:30.388Z,9.23
2022-12-26T08:53:57.248Z,9.60
2022-12-26T08:56:25.402Z,9.57
2022-12-26T08:58:52.750Z,9.93
2022-12-26T09:01:21.959Z,9.50
2022-12-26T09:03:53.994Z,10.07
2022-12-26T09:06:28.596Z,9.13
2022-12-26T09:09:01.500Z,8.45
2022-12-26T09:11:29.465Z,9.10
2022-12-26T09:14:01.067Z,8.02
2022-12-26T09:16:50.077Z,8.05
2022-12-26T09:19:21.648Z,7.88
2022-12-26T09:21:53.812Z,7.30
2022-12-26T09:24:45.099Z,5.85
2022-12-26T09:27:12.037Z,4.28
2022-12-26T09:29:38.825Z,3.13
2022-12-26T09:32:06.170Z,2.50
2022-12-26T09:34:33.125Z,2.95
2022-12-26T09:37:01.313Z,2.90
2022-12-26T09:39:28.012Z,3.40
2022-12-26T09:42:03.859Z,2.38
2022-12-26T09:44:42.309Z,2.35
2022-12-26T09:47:22.078Z,2.42
2022-12-26T09:49:55.504Z,3.25
2022-12-26T09:52:32.531Z,2.83
2022-12-26T09:55:05.703Z,3.60
2022-12-26T09:57:38.131Z,2.22
2022-12-26T10:00:07.446Z,2.05
2022-12-26T10:02:34.375Z,2.42
2022-12-26T10:05:01.682Z,2.60
2022-12-26T10:07:36.321Z,2.08
2022-12-26T10:10:10.895Z,1.85
2022-12-26T10:12:50.814Z,2.40
2022-12-26T10:15:43.446Z,1.80
2022-12-26T10:18:28.207Z,2.75
2022-12-26T10:21:12.177Z,2.00
2022-12-26T10:23:44.724Z,2.28
2022-12-26T10:26:16.878Z,1.88
2022-12-26T10:28:47.929Z,1.65
2022-12-26T10:57:24.841Z,1.70
2022-12-26T10:59:56.897Z,1.20
2022-12-26T11:05:40.351Z,1.38
2022-12-26T11:08:49.714Z,0.90
2022-12-26T11:11:25.100Z,1.65
2022-12-26T11:14:06.009Z,1.98
2022-12-26T11:16:46.198Z,1.90
2022-12-26T11:19:47.062Z,1.70
2022-12-26T11:22:41.714Z,2.47
2022-12-26T11:25:24.297Z,1.73
2022-12-26T11:27:59.990Z,2.10
2022-12-26T11:30:50.631Z,1.98
2022-12-26T11:33:48.134Z,1.80
2022-12-26T11:39:05.251Z,2.15
2022-12-26T11:41:41.201Z,2.38
2022-12-26T11:44:46.090Z,2.38
2022-12-26T11:47:27.099Z,2.47
2022-12-26T11:50:17.420Z,2.22
2022-12-26T11:53:28.762Z,2.25
2022-12-26T11:56:07.663Z,3.17
2022-12-26T11:58:53.854Z,3.00
2022-12-26T12:04:24.855Z,2.17
2022-12-26T12:11:04.178Z,2.40
2022-12-26T12:14:07.497Z,2.20
2022-12-26T12:17:07.766Z,2.75
2022-12-26T12:20:14.791Z,2.58
2022-12-26T12:23:32.770Z,2.50
2022-12-26T12:26:31.507Z,2.35
2022-12-26T13:45:56.846Z,2.28
2022-12-26T13:49:06.464Z,3.17
2022-12-26T13:52:28.564Z,2.38
2022-12-26T13:55:33.586Z,2.90
2022-12-26T13:58:36.427Z,2.47
2022-12-26T14:01:20.510Z,2.40
2022-12-26T14:04:08.965Z,3.08
2022-12-26T14:07:38.267Z,2.22
2022-12-26T14:10:25.437Z,2.85
2022-12-26T14:13:42.601Z,2.42
2022-12-26T14:16:35.002Z,2.75
2022-12-26T14:19:30.123Z,2.35
2022-12-26T14:22:25.423Z,2.45
2022-12-26T14:25:20.259Z,1.88
2022-12-26T14:28:02.562Z,2.50
2022-12-26T14:31:04.144Z,2.10
2022-12-26T14:37:00.160Z,1.92
2022-12-26T14:39:41.108Z,2.60
2022-12-26T14:42:35.663Z,2.55
2022-12-26T14:45:15.447Z,2.00
2022-12-26T14:47:46.183Z,2.10
2022-12-26T14:50:52.677Z,2.10
2022-12-26T14:53:41.236Z,2.15
2022-12-26T14:56:34.763Z,2.95
2022-12-26T14:59:42.461Z,1.67
2022-12-26T15:02:40.276Z,3.30
2022-12-26T15:05:43.834Z,2.00
2022-12-26T15:08:35.138Z,2.20
2022-12-26T15:11:42.842Z,2.60
2022-12-26T15:14:56.999Z,2.10
2022-12-26T15:17:39.690Z,2.53
2022-12-26T15:20:53.372Z,1.73
2022-12-26T15:23:54.681Z,1.67
2022-12-26T15:27:18.473Z,1.98
2022-12-26T15:30:04.664Z,4.30
2022-12-26T15:32:43.553Z,1.70
2022-12-26T15:35:31.577Z,2.15
2022-12-26T15:38:25.114Z,2.10
2022-12-26T15:41:10.215Z,2.20
2022-12-26T15:44:03.227Z,2.53
2022-12-26T15:46:36.619Z,1.98
2022-12-26T15:49:30.420Z,2.67
2022-12-26T15:52:10.602Z,2.08
2022-12-26T15:55:15.698Z,3.08
2022-12-26T15:58:05.014Z,2.40
2022-12-26T16:00:49.631Z,2.53
2022-12-26T16:03:36.742Z,3.15
2022-12-26T16:06:33.232Z,2.83
2022-12-26T16:09:20.327Z,1.95
2022-12-26T16:12:00.755Z,2.05
2022-12-26T16:14:47.851Z,1.85
2022-12-26T16:17:32.830Z,2.53
2022-12-26T16:20:18.967Z,1.98
2022-12-26T16:23:00.560Z,4.50
2022-12-26T16:25:27.880Z,2.75
2022-12-26T16:27:57.797Z,9.43
2022-12-26T16:30:40.318Z,5.38
2022-12-26T16:33:28.407Z,2.85
2022-12-26T16:36:18.699Z,2.42
2022-12-26T16:38:52.717Z,2.45
2022-12-26T16:41:22.236Z,2.33
2022-12-26T16:43:55.953Z,3.53
2022-12-26T16:46:33.746Z,2.15
2022-12-26T16:49:09.678Z,1.80
2022-12-26T16:52:03.106Z,2.65
2022-12-26T16:54:37.448Z,2.20
2022-12-26T16:57:16.950Z,1.70
2022-12-26T16:59:56.659Z,2.78
2022-12-26T17:02:34.660Z,2.60
2022-12-26T17:05:06.535Z,2.40
2022-12-26T17:07:38.812Z,2.58
2022-12-26T17:10:21.120Z,2.88
2022-12-26T17:12:50.753Z,2.35
2022-12-26T17:15:24.627Z,2.10
2022-12-26T17:17:53.027Z,2.45
2022-12-26T17:20:47.385Z,2.47
2022-12-26T17:23:36.998Z,1.92
2022-12-26T17:26:30.052Z,2.20
2022-12-26T17:29:06.185Z,2.35
2022-12-26T17:31:40.365Z,3.25
2022-12-26T17:34:23.450Z,2.42
2022-12-26T17:37:18.616Z,3.17
2022-12-26T17:39:42.255Z,2.83
2022-12-26T17:42:17.510Z,2.47
2022-12-26T17:44:48.539Z,2.72
2022-12-26T17:47:28.125Z,3.20
2022-12-26T17:50:10.461Z,4.25
2022-12-26T17:55:22.705Z,2.80
2022-12-26T17:57:49.989Z,2.25
2022-12-26T18:00:19.995Z,3.30
2022-12-26T18:02:54.494Z,3.60
2022-12-26T18:05:27.177Z,2.50
2022-12-26T18:07:56.500Z,2.28
2022-12-26T18:10:31.276Z,2.60
2022-12-26T18:13:01.664Z,3.17
2022-12-26T18:15:31.582Z,2.37
2022-12-26T18:17:58.679Z,4.65
2022-12-26T18:20:33.179Z,3.75
2022-12-26T18:23:19.521Z,4.88
2022-12-26T18:25:54.319Z,2.47
2022-12-26T18:28:31.426Z,2.13
2022-12-26T18:31:00.490Z,2.97
2022-12-26T18:33:28.131Z,2.85
2022-12-26T18:36:07.404Z,2.80
2022-12-26T18:38:36.006Z,3.40
2022-12-26T18:41:05.742Z,3.55
2022-12-26T18:43:35.379Z,4.15
2022-12-26T18:46:06.599Z,3.22
2022-12-26T18:48:33.423Z,2.75
2022-12-26T18:51:18.270Z,2.47
2022-12-26T18:53:45.743Z,2.85
2022-12-26T18:56:14.501Z,3.83
2022-12-26T18:58:46.264Z,3.22
2022-12-26T19:01:18.628Z,2.83
2022-12-26T19:03:54.104Z,2.83
2022-12-26T19:06:33.348Z,2.78
2022-12-26T19:09:07.442Z,1.85
2022-12-26T19:11:37.564Z,2.53
2022-12-26T19:14:15.305Z,2.97
2022-12-26T19:16:42.646Z,2.67
2022-12-26T19:19:09.563Z,2.90
2022-12-26T19:21:47.765Z,2.60
2022-12-26T19:24:17.095Z,2.53
2022-12-26T19:26:54.538Z,3.05
2022-12-26T19:29:21.441Z,2.75
2022-12-26T19:31:51.229Z,3.38
2022-12-26T19:34:23.891Z,3.03
2022-12-26T19:36:57.471Z,2.30
2022-12-26T19:39:31.811Z,2.47
2022-12-26T19:42:03.988Z,2.33
2022-12-26T19:44:35.276Z,2.65
2022-12-26T19:47:11.381Z,2.63
2022-12-26T19:49:40.024Z,2.30
2022-12-26T19:52:08.337Z,1.95
2022-12-26T19:54:37.922Z,1.90
2022-12-26T19:57:05.551Z,2.88
2022-12-26T19:59:36.062Z,2.20
2022-12-26T20:02:08.016Z,1.90
2022-12-26T20:04:37.922Z,2.28
2022-12-26T20:07:10.350Z,2.70
2022-12-26T20:09:40.511Z,2.65
2022-12-26T20:12:11.097Z,2.20
2022-12-26T20:14:45.878Z,3.75
2022-12-26T20:17:16.271Z,2.33
2022-12-26T20:19:43.029Z,2.37
2022-12-26T20:22:10.338Z,3.03
2022-12-26T20:24:44.651Z,2.15
2022-12-26T20:27:18.506Z,2.95
2022-12-26T20:29:45.457Z,1.95
2022-12-26T20:32:13.841Z,2.70
2022-12-26T20:37:29.445Z,2.05
2022-12-26T20:40:07.653Z,3.38
2022-12-26T20:42:37.247Z,1.50
2022-12-26T20:45:08.499Z,2.38
2022-12-26T20:50:30.501Z,1.67
2022-12-26T20:53:08.698Z,2.63
2022-12-26T20:55:39.374Z,2.10
2022-12-26T20:58:06.214Z,2.38
2022-12-26T21:00:44.513Z,2.33
2022-12-26T21:03:27.618Z,2.70
2022-12-26T21:06:07.888Z,2.17
2022-12-26T21:08:50.409Z,1.67
2022-12-26T21:11:34.688Z,1.58
2022-12-26T21:14:17.399Z,1.98
2022-12-26T21:16:46.500Z,1.92
2022-12-26T21:19:18.756Z,1.98
2022-12-26T21:21:54.237Z,1.40
2022-12-26T21:24:33.546Z,1.30
2022-12-26T21:27:13.473Z,1.33
2022-12-26T21:29:50.980Z,1.63
2022-12-26T21:32:17.974Z,1.80
2022-12-26T21:34:51.509Z,1.83
2022-12-26T21:37:19.102Z,1.55
2022-12-26T21:39:53.786Z,1.85
2022-12-26T21:45:13.070Z,2.30
2022-12-26T21:47:44.985Z,1.40
2022-12-26T21:50:19.144Z,1.52
2022-12-26T21:52:50.479Z,2.10
2022-12-26T21:57:54.601Z,1.63
2022-12-26T22:00:31.604Z,2.28
2022-12-26T22:03:06.940Z,1.90
2022-12-26T22:05:42.913Z,1.50
2022-12-26T22:08:21.159Z,1.75
2022-12-26T22:10:52.370Z,1.30
2022-12-26T22:13:27.631Z,1.45
2022-12-26T22:15:59.947Z,1.40
2022-12-26T22:18:46.414Z,1.75
2022-12-26T22:21:15.685Z,1.58
2022-12-26T22:23:43.474Z,1.48
2022-12-26T22:26:15.927Z,2.28
2022-12-26T22:28:50.205Z,1.42
2022-12-26T22:31:24.909Z,1.58
2022-12-26T22:34:02.692Z,1.73
2022-12-26T22:36:47.493Z,1.65
2022-12-26T22:39:37.978Z,1.60
2022-12-26T22:42:22.607Z,1.42
2022-12-26T22:45:03.766Z,1.20
2022-12-26T22:47:35.800Z,1.42
2022-12-26T22:50:13.428Z,1.75
2022-12-26T22:52:42.989Z,1.40
2022-12-26T22:55:19.722Z,1.13
2022-12-26T22:57:52.385Z,1.30
2022-12-26T23:00:21.955Z,1.17
2022-12-26T23:02:48.789Z,1.40
2022-12-26T23:05:18.768Z,1.95
2022-12-26T23:07:51.660Z,1.38
2022-12-26T23:10:21.928Z,1.50
2022-12-26T23:12:52.926Z,1.25
2022-12-26T23:15:27.260Z,1.23
2022-12-26T23:18:09.974Z,1.40
2022-12-26T23:20:38.951Z,1.30
2022-12-26T23:23:08.158Z,1.63
2022-12-26T23:25:37.132Z,1.48
2022-12-26T23:28:04.298Z,1.40
2022-12-26T23:30:32.521Z,1.33
2022-12-26T23:33:04.884Z,1.20
2022-12-26T23:35:33.641Z,1.13
2022-12-26T23:38:00.463Z,1.90
2022-12-26T23:40:30.437Z,2.13
2022-12-26T23:43:01.747Z,2.20
2022-12-26T23:48:04.924Z,2.20
2022-12-26T23:50:37.397Z,1.60
2022-12-26T23:53:06.472Z,1.60
2022-12-26T23:55:34.563Z,1.33
2022-12-26T23:58:03.188Z,2.42
